Time;durP1;ratioP1;P1;durP2;ratioP2;P2;SDS_P1;SDS_P2;PMS_P1;PMS_P2;Temp;Humidity;BMP_temperature;BMP_pressure;BME280_temperature;BME280_humidity;BME280_pressure;Samples;Min_cycle;Max_cycle;Signal;HPM_P1;HPM_P2
2022/04/09 00:00:26;;;;;;;4.35;2.25;;;;;;;;;;5082444;28;20048;-52
2022/04/09 00:02:52;;;;;;;6.28;3.65;;;;;;;;;;5084616;28;20138;-46
2022/04/09 00:05:17;;;;;;;10.07;3.45;;;;;;;;;;5083919;28;20105;-51
2022/04/09 00:07:42;;;;;;;7.00;3.38;;;;;;;;;;5081245;28;20044;-49
2022/04/09 00:10:09;;;;;;;10.23;4.53;;;;;;;;;;5079379;28;20451;-53
2022/04/09 00:12:35;;;;;;;12.20;3.53;;;;;;;;;;5084620;28;20100;-52
2022/04/09 00:15:00;;;;;;;4.00;3.25;;;;;;;;;;5083108;28;20036;-51
2022/04/09 00:17:25;;;;;;;12.15;3.80;;;;;;;;;;5080583;28;20110;-52
2022/04/09 00:19:52;;;;;;;4.28;2.63;;;;;;;;;;5076780;28;20036;-49
2022/04/09 00:22:17;;;;;;;6.60;3.30;;;;;;;;;;5078678;28;20067;-51
2022/04/09 00:24:42;;;;;;;5.93;4.25;;;;;;;;;;5079537;28;20083;-51
2022/04/09 00:27:08;;;;;;;7.68;3.38;;;;;;;;;;5082923;28;20047;-51
2022/04/09 00:29:33;;;;;;;5.15;3.03;;;;;;;;;;5085180;28;20119;-49
2022/04/09 00:31:58;;;;;;;13.05;3.78;;;;;;;;;;5083265;28;20663;-51
2022/04/09 00:34:24;;;;;;;7.50;3.00;;;;;;;;;;5084703;28;20051;-48
2022/04/09 00:36:49;;;;;;;6.57;3.10;;;;;;;;;;5081442;28;20094;-53
2022/04/09 00:39:14;;;;;;;11.07;1.20;;;;;;;;;;5080816;28;20511;-48
2022/04/09 00:41:40;;;;;;;3.72;2.80;;;;;;;;;;5079455;28;20414;-50
2022/04/09 00:44:18;;;;;;;5.70;3.30;;;;;;;;;;5079603;28;20586;-49
2022/04/09 00:46:44;;;;;;;8.25;3.97;;;;;;;;;;5078999;28;20076;-51
2022/04/09 00:49:09;;;;;;;9.27;4.05;;;;;;;;;;5079722;28;20546;-53
2022/04/09 00:51:36;;;;;;;33.60;22.35;;;;;;;;;;5082628;28;20056;-47
2022/04/09 00:54:03;;;;;;;8.80;6.72;;;;;;;;;;5082821;28;20052;-50
2022/04/09 00:56:28;;;;;;;7.60;3.15;;;;;;;;;;5083588;28;20040;-51
2022/04/09 00:58:57;;;;;;;2.67;2.22;;;;;;;;;;5076553;28;20044;-52
2022/04/09 01:01:23;;;;;;;8.68;3.20;;;;;;;;;;5084572;28;20124;-47
2022/04/09 01:03:51;;;;;;;9.77;4.97;;;;;;;;;;5084462;28;20048;-49
2022/04/09 01:06:17;;;;;;;5.47;3.05;;;;;;;;;;5082469;28;20101;-50
2022/04/09 01:08:42;;;;;;;9.68;2.58;;;;;;;;;;5084682;28;20044;-47
2022/04/09 01:11:08;;;;;;;5.40;3.35;;;;;;;;;;5081602;28;20083;-48
2022/04/09 01:13:34;;;;;;;5.38;3.03;;;;;;;;;;5081075;28;20047;-47
2022/04/09 01:15:59;;;;;;;6.93;2.60;;;;;;;;;;5081087;28;20048;-52
2022/04/09 01:18:25;;;;;;;11.43;2.15;;;;;;;;;;5081734;28;20059;-55
2022/04/09 01:20:50;;;;;;;4.05;3.10;;;;;;;;;;5082835;28;20055;-52
2022/04/09 01:23:15;;;;;;;10.05;2.67;;;;;;;;;;5084289;28;20051;-51
2022/04/09 01:25:41;;;;;;;4.10;2.65;;;;;;;;;;5080972;28;20053;-50
2022/04/09 01:28:06;;;;;;;6.65;5.32;;;;;;;;;;5082429;28;20089;-48
2022/04/09 01:30:32;;;;;;;8.52;6.50;;;;;;;;;;5080866;28;20074;-51
2022/04/09 01:32:57;;;;;;;9.95;6.03;;;;;;;;;;5080081;28;20048;-52
2022/04/09 01:35:22;;;;;;;10.65;7.40;;;;;;;;;;5079206;28;20495;-53
2022/04/09 01:37:48;;;;;;;8.73;5.00;;;;;;;;;;5081335;28;20048;-51
2022/04/09 01:40:13;;;;;;;10.32;4.43;;;;;;;;;;5082985;28;20055;-50
2022/04/09 01:42:39;;;;;;;7.85;4.82;;;;;;;;;;5082511;28;20052;-49
2022/04/09 01:45:05;;;;;;;5.65;3.35;;;;;;;;;;5083269;28;20052;-52
2022/04/09 01:47:30;;;;;;;7.25;3.53;;;;;;;;;;5081627;28;20044;-52
2022/04/09 01:49:58;;;;;;;10.43;5.57;;;;;;;;;;5082977;28;20042;-53
2022/04/09 01:52:24;;;;;;;8.15;4.95;;;;;;;;;;5082362;28;20044;-52
2022/04/09 01:54:49;;;;;;;6.95;6.20;;;;;;;;;;5083436;28;20052;-54
2022/04/09 01:57:15;;;;;;;16.88;13.45;;;;;;;;;;5085156;28;20066;-54
2022/04/09 01:59:43;;;;;;;18.17;13.10;;;;;;;;;;5085153;28;20062;-52
2022/04/09 02:02:08;;;;;;;17.77;13.18;;;;;;;;;;5083173;28;20415;-52
2022/04/09 02:04:34;;;;;;;15.48;11.32;;;;;;;;;;5084235;28;20044;-48
2022/04/09 02:06:59;;;;;;;23.02;11.68;;;;;;;;;;5080736;28;20050;-53
2022/04/09 02:09:25;;;;;;;17.52;11.50;;;;;;;;;;5086393;28;20044;-49
2022/04/09 02:11:50;;;;;;;13.82;9.95;;;;;;;;;;5085176;28;20043;-51
2022/04/09 02:14:16;;;;;;;16.60;11.27;;;;;;;;;;5084984;28;20423;-48
2022/04/09 02:16:41;;;;;;;16.42;10.82;;;;;;;;;;5081381;28;20483;-51
2022/04/09 02:19:08;;;;;;;14.25;7.78;;;;;;;;;;5085922;28;20032;-47
2022/04/09 02:21:34;;;;;;;10.52;6.28;;;;;;;;;;5083801;28;20044;-51
2022/04/09 02:23:59;;;;;;;15.93;5.90;;;;;;;;;;5084946;28;20553;-50
2022/04/09 02:26:25;;;;;;;9.50;4.43;;;;;;;;;;5079590;28;20462;-48
2022/04/09 02:28:50;;;;;;;8.38;4.00;;;;;;;;;;5079022;28;20044;-49
2022/04/09 02:31:17;;;;;;;8.18;4.75;;;;;;;;;;5081511;28;20058;-50
2022/04/09 02:33:43;;;;;;;9.88;5.82;;;;;;;;;;5084453;28;20550;-50
2022/04/09 02:36:12;;;;;;;8.80;5.40;;;;;;;;;;5086911;28;20139;-52
2022/04/09 02:38:37;;;;;;;7.50;5.03;;;;;;;;;;5085016;28;20125;-50
2022/04/09 02:41:02;;;;;;;6.43;4.28;;;;;;;;;;5086445;28;20070;-49
2022/04/09 02:43:27;;;;;;;5.38;3.13;;;;;;;;;;5078380;28;20048;-52
2022/04/09 02:45:53;;;;;;;9.27;3.53;;;;;;;;;;5085733;28;20522;-52
2022/04/09 02:48:19;;;;;;;8.13;4.10;;;;;;;;;;5081637;28;20111;-51
2022/04/09 02:50:44;;;;;;;8.57;5.10;;;;;;;;;;5087153;28;20518;-50
2022/04/09 02:53:10;;;;;;;7.05;4.72;;;;;;;;;;5083542;28;20052;-50
2022/04/09 02:55:35;;;;;;;9.13;5.60;;;;;;;;;;5084873;28;20153;-51
2022/04/09 02:58:01;;;;;;;14.40;7.30;;;;;;;;;;5084698;28;20418;-49
2022/04/09 03:00:26;;;;;;;14.88;8.15;;;;;;;;;;5085578;28;20097;-49
2022/04/09 03:02:52;;;;;;;26.35;6.53;;;;;;;;;;5085070;28;20040;-47
2022/04/09 03:05:17;;;;;;;10.80;5.13;;;;;;;;;;5082185;28;20521;-50
2022/04/09 03:07:42;;;;;;;7.20;3.40;;;;;;;;;;5082219;28;20491;-49
2022/04/09 03:10:08;;;;;;;15.30;5.60;;;;;;;;;;5082608;28;20410;-48
2022/04/09 03:12:33;;;;;;;14.73;6.75;;;;;;;;;;5080875;28;20105;-48
2022/04/09 03:14:59;;;;;;;23.40;6.85;;;;;;;;;;5077239;28;20511;-51
2022/04/09 03:17:24;;;;;;;14.05;6.85;;;;;;;;;;5085629;28;20423;-49
2022/04/09 03:19:49;;;;;;;22.85;10.88;;;;;;;;;;5082931;28;20093;-51
2022/04/09 03:22:15;;;;;;;22.95;13.57;;;;;;;;;;5080914;28;20533;-49
2022/04/09 03:24:40;;;;;;;24.65;12.80;;;;;;;;;;5085386;28;20187;-51
2022/04/09 03:27:05;;;;;;;30.48;15.50;;;;;;;;;;5082030;28;20117;-51
2022/04/09 03:29:31;;;;;;;42.05;16.50;;;;;;;;;;5084410;28;20040;-50
2022/04/09 03:31:57;;;;;;;36.38;16.80;;;;;;;;;;5085037;28;20036;-51
2022/04/09 03:34:22;;;;;;;20.23;11.25;;;;;;;;;;5081577;28;20098;-47
2022/04/09 03:36:47;;;;;;;13.48;8.25;;;;;;;;;;5084804;28;20036;-49
2022/04/09 03:39:13;;;;;;;10.30;8.68;;;;;;;;;;5084408;28;20515;-51
2022/04/09 03:41:38;;;;;;;9.80;7.40;;;;;;;;;;5080340;28;20087;-52
2022/04/09 03:44:04;;;;;;;13.60;8.77;;;;;;;;;;5082443;28;20044;-52
2022/04/09 03:46:29;;;;;;;14.23;7.70;;;;;;;;;;5083252;28;20105;-49
2022/04/09 03:48:54;;;;;;;22.30;9.63;;;;;;;;;;5080255;28;20570;-50
2022/04/09 03:51:19;;;;;;;11.93;7.25;;;;;;;;;;5083027;28;20154;-52
2022/04/09 03:53:45;;;;;;;7.95;5.53;;;;;;;;;;5078773;28;20039;-53
2022/04/09 03:56:10;;;;;;;9.15;6.20;;;;;;;;;;5082425;28;20136;-51
2022/04/09 03:58:36;;;;;;;15.15;5.68;;;;;;;;;;5084135;28;20504;-52
2022/04/09 04:01:01;;;;;;;19.40;6.95;;;;;;;;;;5079140;28;20063;-49
2022/04/09 04:03:28;;;;;;;8.77;3.80;;;;;;;;;;5080656;28;20047;-52
2022/04/09 04:05:53;;;;;;;5.57;3.67;;;;;;;;;;5079456;28;20055;-50
2022/04/09 04:08:19;;;;;;;6.72;4.07;;;;;;;;;;5082299;28;20032;-47
2022/04/09 04:10:44;;;;;;;10.38;5.03;;;;;;;;;;5084691;28;20538;-49
2022/04/09 04:13:11;;;;;;;8.90;4.47;;;;;;;;;;5081632;28;20097;-51
2022/04/09 04:15:36;;;;;;;5.35;3.65;;;;;;;;;;5084323;28;20495;-50
2022/04/09 04:18:02;;;;;;;5.88;3.58;;;;;;;;;;5083637;28;20134;-47
2022/04/09 04:20:28;;;;;;;5.90;4.03;;;;;;;;;;5079166;28;20540;-53
2022/04/09 04:22:53;;;;;;;6.70;2.63;;;;;;;;;;5078878;28;20121;-50
2022/04/09 04:25:19;;;;;;;4.68;2.00;;;;;;;;;;5082139;28;20085;-47
2022/04/09 04:27:48;;;;;;;16.40;3.20;;;;;;;;;;5078184;28;20543;-52
2022/04/09 04:30:14;;;;;;;5.63;4.00;;;;;;;;;;5084062;28;20503;-52
2022/04/09 04:32:40;;;;;;;9.27;2.72;;;;;;;;;;5083084;28;20043;-51
2022/04/09 04:35:06;;;;;;;5.30;2.30;;;;;;;;;;5082641;28;20056;-48
2022/04/09 04:37:38;;;;;;;9.43;3.42;;;;;;;;;;5081119;28;20554;-47
2022/04/09 04:40:04;;;;;;;6.72;2.28;;;;;;;;;;5083756;28;20192;-53
2022/04/09 04:42:29;;;;;;;12.48;1.67;;;;;;;;;;5079903;28;20057;-50
2022/04/09 04:44:55;;;;;;;4.65;2.03;;;;;;;;;;5085280;28;20040;-50
2022/04/09 04:47:20;;;;;;;4.28;2.03;;;;;;;;;;5078726;28;20079;-47
2022/04/09 04:49:45;;;;;;;4.82;2.15;;;;;;;;;;5083016;28;20058;-52
2022/04/09 04:52:10;;;;;;;3.10;2.38;;;;;;;;;;5080035;28;20151;-53
2022/04/09 04:54:36;;;;;;;4.60;2.28;;;;;;;;;;5083358;28;20669;-47
2022/04/09 04:57:02;;;;;;;4.68;2.33;;;;;;;;;;5082864;28;20052;-50
2022/04/09 04:59:27;;;;;;;7.20;3.50;;;;;;;;;;5081745;28;20040;-49
2022/04/09 05:01:52;;;;;;;12.43;4.72;;;;;;;;;;5083673;28;20331;-52
2022/04/09 05:04:18;;;;;;;5.82;3.65;;;;;;;;;;5083945;28;20617;-46
2022/04/09 05:06:44;;;;;;;9.00;6.45;;;;;;;;;;5079572;28;20763;-52
2022/04/09 05:09:10;;;;;;;6.20;3.70;;;;;;;;;;5083529;28;20127;-51
2022/04/09 05:11:36;;;;;;;10.88;2.20;;;;;;;;;;5078414;28;20127;-48
2022/04/09 05:14:01;;;;;;;5.47;2.20;;;;;;;;;;5080298;28;20062;-49
2022/04/09 05:16:26;;;;;;;7.45;3.40;;;;;;;;;;5077938;28;20600;-52
2022/04/09 05:18:52;;;;;;;7.60;4.07;;;;;;;;;;5083878;28;20383;-51
2022/04/09 05:21:17;;;;;;;10.73;4.45;;;;;;;;;;5083123;28;20106;-51
2022/04/09 05:23:42;;;;;;;22.45;4.25;;;;;;;;;;5079680;28;20480;-52
2022/04/09 05:26:08;;;;;;;5.15;3.88;;;;;;;;;;5079388;28;20435;-51
2022/04/09 05:28:33;;;;;;;7.95;2.97;;;;;;;;;;5078321;28;20048;-51
2022/04/09 05:30:58;;;;;;;9.23;3.78;;;;;;;;;;5083880;28;20551;-51
2022/04/09 05:33:23;;;;;;;4.03;3.03;;;;;;;;;;5084346;28;20051;-52
2022/04/09 05:35:49;;;;;;;8.00;3.70;;;;;;;;;;5082117;28;20040;-50
2022/04/09 05:38:14;;;;;;;5.90;2.00;;;;;;;;;;5081513;28;20053;-50
2022/04/09 05:40:40;;;;;;;5.95;3.88;;;;;;;;;;5085049;28;20123;-54
2022/04/09 05:43:06;;;;;;;3.33;1.90;;;;;;;;;;5084058;28;20131;-50
2022/04/09 05:45:31;;;;;;;8.88;4.40;;;;;;;;;;5086427;28;20048;-47
2022/04/09 05:47:56;;;;;;;13.63;8.82;;;;;;;;;;5083851;28;20128;-50
2022/04/09 05:50:22;;;;;;;11.38;8.40;;;;;;;;;;5084691;28;20044;-47
2022/04/09 05:52:49;;;;;;;12.52;8.32;;;;;;;;;;5083136;28;20070;-48
2022/04/09 05:55:17;;;;;;;26.48;8.35;;;;;;;;;;5086575;28;20089;-48
2022/04/09 05:57:42;;;;;;;11.18;6.38;;;;;;;;;;5083165;28;20047;-50
2022/04/09 06:00:09;;;;;;;8.23;5.93;;;;;;;;;;5081052;28;20558;-42
2022/04/09 06:02:37;;;;;;;6.10;3.80;;;;;;;;;;5082073;28;20048;-43
2022/04/09 06:05:02;;;;;;;16.80;11.00;;;;;;;;;;5085114;28;20071;-43
2022/04/09 06:07:28;;;;;;;15.73;11.07;;;;;;;;;;5087018;28;20075;-45
2022/04/09 06:09:53;;;;;;;13.73;9.85;;;;;;;;;;5084964;28;20036;-47
2022/04/09 06:12:18;;;;;;;13.10;8.80;;;;;;;;;;5084928;28;20043;-44
2022/04/09 06:14:44;;;;;;;9.98;7.28;;;;;;;;;;5085967;28;20179;-45
2022/04/09 06:17:09;;;;;;;5.45;3.70;;;;;;;;;;5086510;28;20050;-45
2022/04/09 06:19:35;;;;;;;3.85;2.00;;;;;;;;;;5086717;28;20487;-45
2022/04/09 06:22:01;;;;;;;12.52;4.47;;;;;;;;;;5084508;28;20140;-51
2022/04/09 06:24:26;;;;;;;11.05;3.90;;;;;;;;;;5085553;28;20131;-48
2022/04/09 06:26:52;;;;;;;12.00;6.38;;;;;;;;;;5084049;28;20040;-48
2022/04/09 06:29:17;;;;;;;13.68;5.75;;;;;;;;;;5086600;28;20048;-43
2022/04/09 06:31:45;;;;;;;13.35;5.05;;;;;;;;;;5079613;28;20506;-47
2022/04/09 06:34:10;;;;;;;18.00;5.45;;;;;;;;;;5082147;28;20500;-46
2022/04/09 06:36:36;;;;;;;32.92;13.90;;;;;;;;;;5085765;28;20048;-48
2022/04/09 06:39:01;;;;;;;6.28;4.43;;;;;;;;;;5086949;28;20445;-45
2022/04/09 06:41:26;;;;;;;5.72;4.28;;;;;;;;;;5084380;28;20078;-42
2022/04/09 06:43:52;;;;;;;16.42;7.05;;;;;;;;;;5080817;28;20036;-43
2022/04/09 06:46:18;;;;;;;12.57;4.45;;;;;;;;;;5083721;28;20499;-42
2022/04/09 06:48:44;;;;;;;9.65;5.32;;;;;;;;;;5084431;28;20040;-42
2022/04/09 06:51:09;;;;;;;17.38;6.85;;;;;;;;;;5083920;28;20042;-47
2022/04/09 06:53:34;;;;;;;11.80;8.50;;;;;;;;;;5085058;28;20048;-41
2022/04/09 06:56:00;;;;;;;28.42;22.60;;;;;;;;;;5084266;28;20450;-47
2022/04/09 06:58:25;;;;;;;126.85;94.03;;;;;;;;;;5084649;28;20056;-43
2022/04/09 07:00:50;;;;;;;211.07;175.38;;;;;;;;;;5080836;28;20050;-46
2022/04/09 07:03:16;;;;;;;125.50;104.95;;;;;;;;;;5085435;28;20047;-43
2022/04/09 07:05:41;;;;;;;79.05;61.75;;;;;;;;;;5079629;28;20035;-42
2022/04/09 07:08:08;;;;;;;53.88;43.70;;;;;;;;;;5083319;28;20131;-44
2022/04/09 07:10:33;;;;;;;27.30;24.50;;;;;;;;;;5079680;28;20068;-44
2022/04/09 07:12:58;;;;;;;48.45;22.33;;;;;;;;;;5084267;28;20459;-44
2022/04/09 07:15:24;;;;;;;22.48;17.08;;;;;;;;;;5085735;28;20036;-48
2022/04/09 07:17:49;;;;;;;21.15;18.95;;;;;;;;;;5084653;28;20102;-42
2022/04/09 07:20:14;;;;;;;21.60;19.30;;;;;;;;;;5082023;28;20048;-41
2022/04/09 07:22:40;;;;;;;42.95;27.27;;;;;;;;;;5081645;28;20040;-43
2022/04/09 07:25:06;;;;;;;37.85;26.25;;;;;;;;;;5075372;28;20039;-43
2022/04/09 07:27:41;;;;;;;34.45;22.85;;;;;;;;;;5080686;28;20097;-48
2022/04/09 07:30:11;;;;;;;18.52;14.32;;;;;;;;;;5081088;28;20548;-45
2022/04/09 07:32:36;;;;;;;22.90;9.32;;;;;;;;;;5081450;28;20156;-46
2022/04/09 07:35:02;;;;;;;8.13;5.45;;;;;;;;;;5081532;28;20078;-46
2022/04/09 07:37:27;;;;;;;13.57;9.88;;;;;;;;;;5082749;28;20044;-46
2022/04/09 07:39:54;;;;;;;9.80;8.70;;;;;;;;;;5082092;28;20143;-44
2022/04/09 07:42:20;;;;;;;13.05;9.30;;;;;;;;;;5082431;28;20040;-42
2022/04/09 07:44:45;;;;;;;12.82;9.45;;;;;;;;;;5081181;28;20058;-45
2022/04/09 07:47:11;;;;;;;9.98;7.80;;;;;;;;;;5080100;28;20040;-43
2022/04/09 07:49:36;;;;;;;9.48;5.30;;;;;;;;;;5080956;28;20047;-45
2022/04/09 07:52:03;;;;;;;3.13;1.58;;;;;;;;;;5081941;28;20052;-43
2022/04/09 07:54:30;;;;;;;3.08;1.75;;;;;;;;;;5080390;28;20346;-45
2022/04/09 07:56:56;;;;;;;5.00;1.30;;;;;;;;;;5080440;28;20576;-45
2022/04/09 07:59:21;;;;;;;8.80;1.77;;;;;;;;;;5080635;28;20060;-47
2022/04/09 08:01:46;;;;;;;2.85;1.83;;;;;;;;;;5079307;28;20083;-46
2022/04/09 08:04:12;;;;;;;8.82;2.05;;;;;;;;;;5077882;28;20051;-48
2022/04/09 08:06:37;;;;;;;3.90;2.38;;;;;;;;;;5082387;28;20434;-45
2022/04/09 08:09:03;;;;;;;11.60;2.05;;;;;;;;;;5079794;28;20047;-44
2022/04/09 08:11:28;;;;;;;2.05;0.50;;;;;;;;;;5082271;28;20146;-47
2022/04/09 08:13:54;;;;;;;1.63;1.00;;;;;;;;;;5080041;28;20072;-45
2022/04/09 08:16:19;;;;;;;4.53;0.63;;;;;;;;;;5073586;28;20053;-44
2022/04/09 08:18:45;;;;;;;3.17;1.30;;;;;;;;;;5080065;28;20047;-44
2022/04/09 08:21:10;;;;;;;10.10;0.88;;;;;;;;;;5082389;28;20056;-42
2022/04/09 08:23:35;;;;;;;1.48;1.10;;;;;;;;;;5083284;28;20056;-44
2022/04/09 08:26:01;;;;;;;3.10;0.77;;;;;;;;;;5076787;28;20039;-47
2022/04/09 08:28:30;;;;;;;1.52;0.90;;;;;;;;;;5078745;28;20048;-45
2022/04/09 08:30:55;;;;;;;2.78;1.60;;;;;;;;;;5082379;28;20040;-46
2022/04/09 08:33:21;;;;;;;6.10;1.70;;;;;;;;;;5079170;28;20058;-45
2022/04/09 08:35:47;;;;;;;12.63;7.90;;;;;;;;;;5077453;28;20085;-42
2022/04/09 08:38:12;;;;;;;1.77;1.23;;;;;;;;;;5078666;28;20090;-46
2022/04/09 08:40:38;;;;;;;7.32;1.75;;;;;;;;;;5078139;28;20039;-43
2022/04/09 08:43:04;;;;;;;6.40;1.05;;;;;;;;;;5079124;28;20048;-44
2022/04/09 08:45:34;;;;;;;2.40;1.40;;;;;;;;;;5078956;28;20214;-45
2022/04/09 08:47:59;;;;;;;2.22;0.90;;;;;;;;;;5077398;28;20563;-45
2022/04/09 08:50:25;;;;;;;2.10;1.13;;;;;;;;;;5079484;28;20047;-42
2022/04/09 08:52:51;;;;;;;10.98;2.60;;;;;;;;;;5083635;28;20825;-42
2022/04/09 08:55:16;;;;;;;11.85;2.25;;;;;;;;;;5079522;28;20120;-44
2022/04/09 08:57:42;;;;;;;2.13;1.05;;;;;;;;;;5080148;28;20141;-42
2022/04/09 09:00:10;;;;;;;2.65;0.75;;;;;;;;;;5079778;28;20079;-47
2022/04/09 09:02:47;;;;;;;3.70;1.75;;;;;;;;;;5081176;28;20052;-46
2022/04/09 09:05:26;;;;;;;2.20;1.02;;;;;;;;;;5080625;28;20522;-45
2022/04/09 09:07:52;;;;;;;1.98;0.65;;;;;;;;;;5082583;28;20044;-47
2022/04/09 09:10:18;;;;;;;4.57;2.20;;;;;;;;;;5078531;28;20094;-44
2022/04/09 09:12:55;;;;;;;4.60;2.67;;;;;;;;;;5081768;28;20075;-43
2022/04/09 09:15:20;;;;;;;6.05;1.88;;;;;;;;;;5080673;28;20184;-45
2022/04/09 09:17:47;;;;;;;2.60;1.73;;;;;;;;;;5081337;28;20079;-47
2022/04/09 09:20:15;;;;;;;5.88;1.90;;;;;;;;;;5077833;28;20455;-45
2022/04/09 09:22:42;;;;;;;5.25;1.02;;;;;;;;;;5084991;28;20048;-45
2022/04/09 09:25:09;;;;;;;19.52;1.70;;;;;;;;;;5082982;28;20051;-43
2022/04/09 09:27:35;;;;;;;12.13;4.32;;;;;;;;;;5082883;28;20048;-46
2022/04/09 09:30:00;;;;;;;3.20;1.60;;;;;;;;;;5086266;28;20383;-48
2022/04/09 09:32:26;;;;;;;10.20;6.18;;;;;;;;;;5086456;28;20040;-48
2022/04/09 09:34:55;;;;;;;9.57;3.90;;;;;;;;;;5081885;28;20062;-43
2022/04/09 09:37:23;;;;;;;13.32;2.10;;;;;;;;;;5084674;28;20507;-45
2022/04/09 09:39:49;;;;;;;8.38;3.00;;;;;;;;;;5076458;28;20094;-44
2022/04/09 09:42:18;;;;;;;3.83;1.90;;;;;;;;;;5085668;28;20468;-42
2022/04/09 09:44:43;;;;;;;1.55;0.70;;;;;;;;;;5079847;28;20048;-46
2022/04/09 09:47:09;;;;;;;1.73;0.88;;;;;;;;;;5084389;28;20060;-44
2022/04/09 09:49:43;;;;;;;3.35;2.10;;;;;;;;;;5079137;28;20102;-47
2022/04/09 09:52:09;;;;;;;15.30;2.05;;;;;;;;;;5082176;28;20048;-42
2022/04/09 09:54:54;;;;;;;7.28;2.20;;;;;;;;;;5080208;28;20059;-42
2022/04/09 09:57:22;;;;;;;0.65;0.40;;;;;;;;;;5078758;28;20577;-43
2022/04/09 09:59:49;;;;;;;3.22;1.17;;;;;;;;;;5082512;28;20114;-45
2022/04/09 10:02:17;;;;;;;13.48;2.38;;;;;;;;;;5078237;28;20077;-46
2022/04/09 10:04:42;;;;;;;3.13;1.55;;;;;;;;;;5084722;28;20051;-44
2022/04/09 10:07:08;;;;;;;11.25;1.45;;;;;;;;;;5074211;28;20430;-42
2022/04/09 10:09:33;;;;;;;4.38;1.85;;;;;;;;;;5082247;28;20051;-41
2022/04/09 10:11:59;;;;;;;30.48;19.42;;;;;;;;;;5084854;28;20515;-47
2022/04/09 10:14:26;;;;;;;6.82;2.50;;;;;;;;;;5084368;28;20047;-44
2022/04/09 10:16:52;;;;;;;3.30;1.95;;;;;;;;;;5081001;28;20047;-47
2022/04/09 10:19:18;;;;;;;2.60;1.58;;;;;;;;;;5084019;28;20052;-42
2022/04/09 10:21:46;;;;;;;2.08;1.10;;;;;;;;;;5083517;28;20105;-47
2022/04/09 10:24:16;;;;;;;2.92;1.90;;;;;;;;;;5082293;28;20048;-47
2022/04/09 10:26:41;;;;;;;8.25;2.75;;;;;;;;;;5081542;28;20542;-42
2022/04/09 10:29:08;;;;;;;6.63;1.88;;;;;;;;;;5082529;28;20161;-45
2022/04/09 10:31:37;;;;;;;3.63;1.83;;;;;;;;;;5079723;28;20433;-47
2022/04/09 10:34:04;;;;;;;8.32;2.33;;;;;;;;;;5082445;28;20115;-44
2022/04/09 10:36:41;;;;;;;1.63;0.60;;;;;;;;;;5084470;28;20048;-48
2022/04/09 10:39:23;;;;;;;22.13;3.03;;;;;;;;;;5080422;28;20044;-43
2022/04/09 10:41:53;;;;;;;10.57;2.47;;;;;;;;;;5085502;28;20686;-46
2022/04/09 10:44:37;;;;;;;12.18;1.92;;;;;;;;;;5086319;28;20442;-47
2022/04/09 10:47:03;;;;;;;12.90;2.40;;;;;;;;;;5081644;28;20498;-49
2022/04/09 10:49:30;;;;;;;6.25;1.95;;;;;;;;;;5079644;28;20071;-44
2022/04/09 10:52:03;;;;;;;6.72;1.98;;;;;;;;;;5085967;28;20055;-41
2022/04/09 10:54:29;;;;;;;10.50;3.00;;;;;;;;;;5078825;28;20134;-45
2022/04/09 10:56:54;;;;;;;5.30;2.20;;;;;;;;;;5081120;28;20135;-43
2022/04/09 10:59:19;;;;;;;6.95;1.25;;;;;;;;;;5082544;28;20082;-47
2022/04/09 11:01:51;;;;;;;8.13;2.50;;;;;;;;;;5082998;28;20044;-48
2022/04/09 11:04:25;;;;;;;9.43;2.05;;;;;;;;;;5086233;28;20040;-48
2022/04/09 11:07:10;;;;;;;13.68;1.88;;;;;;;;;;5082308;28;20052;-42
2022/04/09 11:09:54;;;;;;;3.88;1.85;;;;;;;;;;5082319;28;20044;-43
2022/04/09 11:12:24;;;;;;;6.93;1.60;;;;;;;;;;5081529;28;20059;-42
2022/04/09 11:14:49;;;;;;;9.87;1.90;;;;;;;;;;5080797;28;20568;-40
2022/04/09 11:17:33;;;;;;;6.22;2.03;;;;;;;;;;5085850;28;20261;-45
2022/04/09 11:20:03;;;;;;;9.65;3.38;;;;;;;;;;5085333;28;20094;-45
2022/04/09 11:22:35;;;;;;;9.20;2.47;;;;;;;;;;5086342;28;20040;-46
2022/04/09 11:25:01;;;;;;;9.90;1.70;;;;;;;;;;5080642;28;20059;-46
2022/04/09 11:27:27;;;;;;;6.55;1.50;;;;;;;;;;5084728;28;20059;-45
2022/04/09 11:29:54;;;;;;;5.88;2.05;;;;;;;;;;5078135;28;20130;-42
2022/04/09 11:32:20;;;;;;;5.15;1.38;;;;;;;;;;5084615;28;20048;-41
2022/04/09 11:34:53;;;;;;;2.47;0.70;;;;;;;;;;5079206;28;20052;-42
2022/04/09 11:37:18;;;;;;;1.35;0.80;;;;;;;;;;5081122;28;20047;-41
2022/04/09 11:39:45;;;;;;;9.80;1.45;;;;;;;;;;5080088;28;20203;-46
2022/04/09 11:42:11;;;;;;;7.70;1.60;;;;;;;;;;5083405;28;20075;-41
2022/04/09 11:44:38;;;;;;;6.75;2.83;;;;;;;;;;5074633;28;20122;-45
2022/04/09 11:47:13;;;;;;;4.03;1.42;;;;;;;;;;5080136;28;21388;-41
2022/04/09 11:49:39;;;;;;;14.98;1.67;;;;;;;;;;5077908;28;20082;-44
2022/04/09 11:52:05;;;;;;;5.78;1.70;;;;;;;;;;5083592;28;20048;-42
2022/04/09 11:54:31;;;;;;;1.48;0.60;;;;;;;;;;5082042;28;20047;-44
2022/04/09 11:56:56;;;;;;;6.07;2.00;;;;;;;;;;5078491;28;20047;-46
2022/04/09 11:59:22;;;;;;;15.05;2.53;;;;;;;;;;5071729;28;20163;-41
2022/04/09 12:01:47;;;;;;;6.78;1.65;;;;;;;;;;5070763;28;20494;-43
2022/04/09 12:04:16;;;;;;;9.73;2.22;;;;;;;;;;5076036;28;20423;-45
2022/04/09 12:06:42;;;;;;;3.97;1.48;;;;;;;;;;5071924;28;20457;-48
2022/04/09 12:09:07;;;;;;;3.42;1.40;;;;;;;;;;5073154;28;20613;-43
2022/04/09 12:11:33;;;;;;;1.45;0.60;;;;;;;;;;5081394;28;20097;-47
2022/04/09 12:14:08;;;;;;;4.75;1.42;;;;;;;;;;5074682;28;20375;-41
2022/04/09 12:16:36;;;;;;;0.38;0.28;;;;;;;;;;5076616;28;20155;-46
2022/04/09 12:19:05;;;;;;;2.00;0.85;;;;;;;;;;5080682;28;20439;-45
2022/04/09 12:21:31;;;;;;;14.00;1.40;;;;;;;;;;5079998;28;20571;-43
2022/04/09 12:24:03;;;;;;;20.13;4.78;;;;;;;;;;5078821;28;20048;-44
2022/04/09 12:26:29;;;;;;;4.93;2.00;;;;;;;;;;5077687;28;20067;-47
2022/04/09 12:29:04;;;;;;;1.92;1.15;;;;;;;;;;5078481;28;20054;-46
2022/04/09 12:31:29;;;;;;;1.13;0.65;;;;;;;;;;5080029;28;20044;-47
2022/04/09 12:33:58;;;;;;;12.40;0.80;;;;;;;;;;5078060;28;20150;-45
2022/04/09 12:36:24;;;;;;;2.90;0.77;;;;;;;;;;5075086;28;20212;-48
2022/04/09 12:38:49;;;;;;;5.43;1.02;;;;;;;;;;5075714;28;20537;-41
2022/04/09 12:41:14;;;;;;;1.55;0.60;;;;;;;;;;5075313;28;20781;-45
2022/04/09 12:43:41;;;;;;;0.73;0.40;;;;;;;;;;5080926;28;20143;-42
2022/04/09 12:46:13;;;;;;;14.65;1.25;;;;;;;;;;5070733;28;20047;-44
2022/04/09 12:48:43;;;;;;;6.85;1.02;;;;;;;;;;5078356;28;20040;-47
2022/04/09 12:51:09;;;;;;;1.88;0.68;;;;;;;;;;5075949;28;20044;-45
2022/04/09 12:53:34;;;;;;;1.15;0.43;;;;;;;;;;5080702;28;20063;-46
2022/04/09 12:56:03;;;;;;;1.20;0.60;;;;;;;;;;5078845;28;20539;-42
2022/04/09 12:58:29;;;;;;;11.88;1.63;;;;;;;;;;5079825;28;20167;-41
2022/04/09 13:00:54;;;;;;;6.70;1.02;;;;;;;;;;5081709;28;20126;-43
2022/04/09 13:03:19;;;;;;;8.35;1.20;;;;;;;;;;5075886;28;20699;-47
2022/04/09 13:05:45;;;;;;;1.20;0.70;;;;;;;;;;5080240;28;20040;-48
2022/04/09 13:08:11;;;;;;;1.58;0.93;;;;;;;;;;5078540;28;20486;-49
2022/04/09 13:10:36;;;;;;;2.22;0.98;;;;;;;;;;5077743;28;20507;-48
2022/04/09 13:13:01;;;;;;;0.85;0.47;;;;;;;;;;5082264;28;20592;-45
2022/04/09 13:15:27;;;;;;;11.07;1.13;;;;;;;;;;5079201;28;20135;-43
2022/04/09 13:17:52;;;;;;;7.55;2.08;;;;;;;;;;5077749;28;20557;-48
2022/04/09 13:20:18;;;;;;;1.27;0.88;;;;;;;;;;5081481;28;20043;-48
2022/04/09 13:22:43;;;;;;;2.58;0.85;;;;;;;;;;5057541;28;20100;-44
2022/04/09 13:25:09;;;;;;;1.42;0.77;;;;;;;;;;5081195;28;20044;-48
2022/04/09 13:27:35;;;;;;;2.28;0.75;;;;;;;;;;5065654;28;20052;-45
2022/04/09 13:30:01;;;;;;;0.43;0.40;;;;;;;;;;5075564;28;20699;-45
2022/04/09 13:32:26;;;;;;;3.15;1.00;;;;;;;;;;5074478;28;20087;-45
2022/04/09 13:34:51;;;;;;;2.63;0.55;;;;;;;;;;5079283;28;20052;-43
2022/04/09 13:37:19;;;;;;;1.35;0.68;;;;;;;;;;5082176;28;20117;-44
2022/04/09 13:39:45;;;;;;;5.15;0.32;;;;;;;;;;5078546;28;20052;-44
2022/04/09 13:42:10;;;;;;;13.02;1.38;;;;;;;;;;5076303;28;20052;-42
2022/04/09 13:44:38;;;;;;;9.25;0.68;;;;;;;;;;5078653;28;20082;-45
2022/04/09 13:47:04;;;;;;;2.50;1.33;;;;;;;;;;5078782;28;20083;-46
2022/04/09 13:49:29;;;;;;;2.25;0.60;;;;;;;;;;5077300;28;20078;-45
2022/04/09 13:51:54;;;;;;;1.33;0.85;;;;;;;;;;5074887;28;20079;-44
2022/04/09 13:54:20;;;;;;;1.65;0.93;;;;;;;;;;5076774;28;20062;-45
2022/04/09 13:56:45;;;;;;;4.13;1.13;;;;;;;;;;5081339;28;20083;-45
2022/04/09 13:59:11;;;;;;;3.03;0.95;;;;;;;;;;5083508;28;20359;-46
2022/04/09 14:01:37;;;;;;;2.15;0.98;;;;;;;;;;5077302;28;20044;-45
2022/04/09 14:04:02;;;;;;;4.40;2.55;;;;;;;;;;5084303;28;20040;-45
2022/04/09 14:06:28;;;;;;;1.60;0.85;;;;;;;;;;5078866;28;20333;-44
2022/04/09 14:08:54;;;;;;;1.85;1.20;;;;;;;;;;5080096;28;20599;-45
2022/04/09 14:11:20;;;;;;;2.08;0.85;;;;;;;;;;5082077;28;20058;-46
2022/04/09 14:13:45;;;;;;;3.05;1.33;;;;;;;;;;5057149;28;20051;-49
2022/04/09 14:16:10;;;;;;;1.40;0.57;;;;;;;;;;5066315;28;20098;-45
2022/04/09 14:18:36;;;;;;;2.03;0.90;;;;;;;;;;5080338;28;20075;-48
2022/04/09 14:21:02;;;;;;;4.32;1.10;;;;;;;;;;5083535;28;20401;-45
2022/04/09 14:23:27;;;;;;;2.33;1.33;;;;;;;;;;5084216;28;20209;-43
2022/04/09 14:25:52;;;;;;;1.23;0.95;;;;;;;;;;5083604;28;20541;-45
2022/04/09 14:28:19;;;;;;;6.25;1.60;;;;;;;;;;5066697;28;20054;-44
2022/04/09 14:30:46;;;;;;;4.05;0.63;;;;;;;;;;5080263;28;20039;-46
2022/04/09 14:33:11;;;;;;;1.25;0.65;;;;;;;;;;5077898;28;20094;-48